sensor_id;sensor_type;location;lat;lon;timestamp;temperature;humidity
14301;DHT22;7234;59.306;18.024;2023-10-31T00:00:53;8.80;99.90
14301;DHT22;7234;59.306;18.024;2023-10-31T00:03:22;8.80;99.90
14301;DHT22;7234;59.306;18.024;2023-10-31T00:05:49;8.80;99.90
14301;DHT22;7234;59.306;18.024;2023-10-31T00:08:16;8.80;99.90
14301;DHT22;7234;59.306;18.024;2023-10-31T00:10:43;8.80;99.90
14301;DHT22;7234;59.306;18.024;2023-10-31T00:13:11;8.80;99.90
14301;DHT22;7234;59.306;18.024;2023-10-31T00:15:38;8.80;99.90
14301;DHT22;7234;59.306;18.024;2023-10-31T00:18:06;8.80;99.90
14301;DHT22;7234;59.306;18.024;2023-10-31T00:20:34;8.80;99.90
14301;DHT22;7234;59.306;18.024;2023-10-31T00:23:01;8.80;99.90
14301;DHT22;7234;59.306;18.024;2023-10-31T00:25:28;8.80;99.90
14301;DHT22;7234;59.306;18.024;2023-10-31T00:27:55;8.80;99.90
14301;DHT22;7234;59.306;18.024;2023-10-31T00:30:22;8.90;99.90
14301;DHT22;7234;59.306;18.024;2023-10-31T00:32:49;8.80;99.90
14301;DHT22;7234;59.306;18.024;2023-10-31T00:35:17;8.80;99.90
14301;DHT22;7234;59.306;18.024;2023-10-31T00:37:45;8.80;99.90
14301;DHT22;7234;59.306;18.024;2023-10-31T00:40:12;8.80;99.90
14301;DHT22;7234;59.306;18.024;2023-10-31T00:42:42;8.80;99.90
14301;DHT22;7234;59.306;18.024;2023-10-31T00:45:09;8.90;99.90
14301;DHT22;7234;59.306;18.024;2023-10-31T00:47:37;8.90;99.90
14301;DHT22;7234;59.306;18.024;2023-10-31T00:50:04;8.90;99.90
14301;DHT22;7234;59.306;18.024;2023-10-31T00:52:32;8.90;99.90
14301;DHT22;7234;59.306;18.024;2023-10-31T00:55:00;8.90;99.90
14301;DHT22;7234;59.306;18.024;2023-10-31T00:57:28;8.90;99.90
14301;DHT22;7234;59.306;18.024;2023-10-31T00:59:55;8.90;99.90
14301;DHT22;7234;59.306;18.024;2023-10-31T01:02:25;8.90;99.90
14301;DHT22;7234;59.306;18.024;2023-10-31T01:04:52;8.90;99.90
14301;DHT22;7234;59.306;18.024;2023-10-31T01:07:20;8.90;99.90
14301;DHT22;7234;59.306;18.024;2023-10-31T01:09:48;8.90;99.90
14301;DHT22;7234;59.306;18.024;2023-10-31T01:12:16;9.00;99.90
14301;DHT22;7234;59.306;18.024;2023-10-31T01:14:43;8.90;99.90
14301;DHT22;7234;59.306;18.024;2023-10-31T01:17:11;9.00;99.90
14301;DHT22;7234;59.306;18.024;2023-10-31T01:19:38;9.00;99.90
14301;DHT22;7234;59.306;18.024;2023-10-31T01:22:06;9.00;99.90
14301;DHT22;7234;59.306;18.024;2023-10-31T01:24:34;9.00;99.90
14301;DHT22;7234;59.306;18.024;2023-10-31T01:27:01;9.00;99.90
14301;DHT22;7234;59.306;18.024;2023-10-31T01:29:30;9.00;99.90
14301;DHT22;7234;59.306;18.024;2023-10-31T01:31:57;9.00;99.90
14301;DHT22;7234;59.306;18.024;2023-10-31T01:34:24;9.00;99.90
14301;DHT22;7234;59.306;18.024;2023-10-31T01:36:51;9.00;99.90
14301;DHT22;7234;59.306;18.024;2023-10-31T01:39:18;9.00;99.90
14301;DHT22;7234;59.306;18.024;2023-10-31T01:41:45;9.00;99.90
14301;DHT22;7234;59.306;18.024;2023-10-31T01:44:14;9.00;99.90
14301;DHT22;7234;59.306;18.024;2023-10-31T01:46:45;9.00;99.90
14301;DHT22;7234;59.306;18.024;2023-10-31T01:49:12;9.00;99.90
14301;DHT22;7234;59.306;18.024;2023-10-31T01:51:41;9.00;99.90
14301;DHT22;7234;59.306;18.024;2023-10-31T01:54:09;9.00;99.90
14301;DHT22;7234;59.306;18.024;2023-10-31T01:56:37;9.00;99.90
14301;DHT22;7234;59.306;18.024;2023-10-31T01:59:05;9.00;99.90
14301;DHT22;7234;59.306;18.024;2023-10-31T02:01:34;8.90;99.90
14301;DHT22;7234;59.306;18.024;2023-10-31T02:04:04;8.90;99.90
14301;DHT22;7234;59.306;18.024;2023-10-31T02:06:31;8.90;99.90
14301;DHT22;7234;59.306;18.024;2023-10-31T02:08:58;8.90;99.90
14301;DHT22;7234;59.306;18.024;2023-10-31T02:11:25;8.90;99.90
14301;DHT22;7234;59.306;18.024;2023-10-31T02:13:53;8.90;99.90
14301;DHT22;7234;59.306;18.024;2023-10-31T02:16:20;8.90;99.90
14301;DHT22;7234;59.306;18.024;2023-10-31T02:18:47;8.90;99.90
14301;DHT22;7234;59.306;18.024;2023-10-31T02:21:16;8.90;99.90
14301;DHT22;7234;59.306;18.024;2023-10-31T02:23:57;8.90;99.90
14301;DHT22;7234;59.306;18.024;2023-10-31T02:26:28;8.90;99.90
14301;DHT22;7234;59.306;18.024;2023-10-31T02:28:55;8.90;99.90
14301;DHT22;7234;59.306;18.024;2023-10-31T02:31:22;8.90;99.90
14301;DHT22;7234;59.306;18.024;2023-10-31T02:33:49;8.90;99.90
14301;DHT22;7234;59.306;18.024;2023-10-31T02:36:16;8.90;99.90
14301;DHT22;7234;59.306;18.024;2023-10-31T02:38:43;8.90;99.90
14301;DHT22;7234;59.306;18.024;2023-10-31T02:41:13;8.90;99.90
14301;DHT22;7234;59.306;18.024;2023-10-31T02:43:41;8.90;99.90
14301;DHT22;7234;59.306;18.024;2023-10-31T02:46:08;9.00;99.90
14301;DHT22;7234;59.306;18.024;2023-10-31T02:48:37;8.90;99.90
14301;DHT22;7234;59.306;18.024;2023-10-31T02:51:05;8.90;99.90
14301;DHT22;7234;59.306;18.024;2023-10-31T02:53:33;8.90;99.90
14301;DHT22;7234;59.306;18.024;2023-10-31T02:56:01;8.90;99.90
14301;DHT22;7234;59.306;18.024;2023-10-31T02:58:29;8.90;99.90
14301;DHT22;7234;59.306;18.024;2023-10-31T03:00:56;8.90;99.90
14301;DHT22;7234;59.306;18.024;2023-10-31T03:03:23;8.90;99.90
14301;DHT22;7234;59.306;18.024;2023-10-31T03:05:50;8.90;99.90
14301;DHT22;7234;59.306;18.024;2023-10-31T03:08:17;8.90;99.90
14301;DHT22;7234;59.306;18.024;2023-10-31T03:10:47;8.90;99.90
14301;DHT22;7234;59.306;18.024;2023-10-31T03:13:17;8.90;99.90
14301;DHT22;7234;59.306;18.024;2023-10-31T03:15:47;8.90;99.90
14301;DHT22;7234;59.306;18.024;2023-10-31T03:18:14;8.90;99.90
14301;DHT22;7234;59.306;18.024;2023-10-31T03:20:44;8.90;99.90
14301;DHT22;7234;59.306;18.024;2023-10-31T03:23:11;8.90;99.90
14301;DHT22;7234;59.306;18.024;2023-10-31T03:25:38;8.90;99.90
14301;DHT22;7234;59.306;18.024;2023-10-31T03:28:17;8.90;99.90
14301;DHT22;7234;59.306;18.024;2023-10-31T03:30:47;8.90;99.90
14301;DHT22;7234;59.306;18.024;2023-10-31T03:33:14;8.90;99.90
14301;DHT22;7234;59.306;18.024;2023-10-31T03:35:42;8.90;99.90
14301;DHT22;7234;59.306;18.024;2023-10-31T03:38:09;8.90;99.90
14301;DHT22;7234;59.306;18.024;2023-10-31T03:40:36;8.90;99.90
14301;DHT22;7234;59.306;18.024;2023-10-31T03:43:05;9.00;99.90
14301;DHT22;7234;59.306;18.024;2023-10-31T03:45:32;9.00;99.90
14301;DHT22;7234;59.306;18.024;2023-10-31T03:48:01;8.90;99.90
14301;DHT22;7234;59.306;18.024;2023-10-31T03:50:28;8.90;99.90
14301;DHT22;7234;59.306;18.024;2023-10-31T03:52:55;8.90;99.90
14301;DHT22;7234;59.306;18.024;2023-10-31T03:55:22;9.00;99.90
14301;DHT22;7234;59.306;18.024;2023-10-31T03:57:50;9.00;99.90
14301;DHT22;7234;59.306;18.024;2023-10-31T04:00:17;9.00;99.90
14301;DHT22;7234;59.306;18.024;2023-10-31T04:02:44;9.00;99.90
14301;DHT22;7234;59.306;18.024;2023-10-31T04:05:13;9.00;99.90
14301;DHT22;7234;59.306;18.024;2023-10-31T04:07:40;9.00;99.90
14301;DHT22;7234;59.306;18.024;2023-10-31T04:10:08;9.00;99.90
14301;DHT22;7234;59.306;18.024;2023-10-31T04:12:35;9.00;99.90
14301;DHT22;7234;59.306;18.024;2023-10-31T04:15:02;9.00;99.90
14301;DHT22;7234;59.306;18.024;2023-10-31T04:17:29;9.00;99.90
14301;DHT22;7234;59.306;18.024;2023-10-31T04:19:57;9.00;99.90
14301;DHT22;7234;59.306;18.024;2023-10-31T04:22:25;9.00;99.90
14301;DHT22;7234;59.306;18.024;2023-10-31T04:24:52;9.00;99.90
14301;DHT22;7234;59.306;18.024;2023-10-31T04:27:20;9.00;99.90
14301;DHT22;7234;59.306;18.024;2023-10-31T04:29:47;9.00;99.90
14301;DHT22;7234;59.306;18.024;2023-10-31T04:32:14;9.00;99.90
14301;DHT22;7234;59.306;18.024;2023-10-31T04:34:41;9.00;99.90
14301;DHT22;7234;59.306;18.024;2023-10-31T04:37:08;9.00;99.90
14301;DHT22;7234;59.306;18.024;2023-10-31T04:39:38;9.00;99.90
14301;DHT22;7234;59.306;18.024;2023-10-31T04:42:05;9.00;99.90
14301;DHT22;7234;59.306;18.024;2023-10-31T04:44:32;9.00;99.90
14301;DHT22;7234;59.306;18.024;2023-10-31T04:46:59;9.00;99.90
14301;DHT22;7234;59.306;18.024;2023-10-31T04:49:26;9.00;99.90
14301;DHT22;7234;59.306;18.024;2023-10-31T04:51:53;9.00;99.90
14301;DHT22;7234;59.306;18.024;2023-10-31T04:54:21;9.00;99.90
14301;DHT22;7234;59.306;18.024;2023-10-31T04:56:49;9.00;99.90
14301;DHT22;7234;59.306;18.024;2023-10-31T04:59:16;9.00;99.90
14301;DHT22;7234;59.306;18.024;2023-10-31T05:01:48;9.00;99.90
14301;DHT22;7234;59.306;18.024;2023-10-31T05:04:16;9.00;99.90
14301;DHT22;7234;59.306;18.024;2023-10-31T05:06:44;8.90;99.90
14301;DHT22;7234;59.306;18.024;2023-10-31T05:09:13;8.90;99.90
14301;DHT22;7234;59.306;18.024;2023-10-31T05:11:42;8.90;99.90
14301;DHT22;7234;59.306;18.024;2023-10-31T05:14:11;8.90;99.90
14301;DHT22;7234;59.306;18.024;2023-10-31T05:16:49;8.90;99.90
14301;DHT22;7234;59.306;18.024;2023-10-31T05:19:17;9.00;99.90
14301;DHT22;7234;59.306;18.024;2023-10-31T05:21:45;8.90;99.90
14301;DHT22;7234;59.306;18.024;2023-10-31T05:24:12;8.90;99.90
14301;DHT22;7234;59.306;18.024;2023-10-31T05:26:40;8.90;99.90
14301;DHT22;7234;59.306;18.024;2023-10-31T05:29:07;8.90;99.90
14301;DHT22;7234;59.306;18.024;2023-10-31T05:31:38;8.90;99.90
14301;DHT22;7234;59.306;18.024;2023-10-31T05:34:05;8.90;99.90
14301;DHT22;7234;59.306;18.024;2023-10-31T05:36:32;8.90;99.90
14301;DHT22;7234;59.306;18.024;2023-10-31T05:38:59;8.90;99.90
14301;DHT22;7234;59.306;18.024;2023-10-31T05:41:26;8.90;99.90
14301;DHT22;7234;59.306;18.024;2023-10-31T05:43:53;8.90;99.90
14301;DHT22;7234;59.306;18.024;2023-10-31T05:46:20;8.90;99.90
14301;DHT22;7234;59.306;18.024;2023-10-31T05:48:53;9.00;99.90
14301;DHT22;7234;59.306;18.024;2023-10-31T05:51:21;8.90;99.90
14301;DHT22;7234;59.306;18.024;2023-10-31T05:54:00;9.00;99.90
14301;DHT22;7234;59.306;18.024;2023-10-31T05:56:27;8.90;99.90
14301;DHT22;7234;59.306;18.024;2023-10-31T05:58:54;8.90;99.90
14301;DHT22;7234;59.306;18.024;2023-10-31T06:01:21;9.00;99.90
14301;DHT22;7234;59.306;18.024;2023-10-31T06:03:48;9.00;99.90
14301;DHT22;7234;59.306;18.024;2023-10-31T06:06:17;9.00;99.90
14301;DHT22;7234;59.306;18.024;2023-10-31T06:08:44;8.90;99.90
14301;DHT22;7234;59.306;18.024;2023-10-31T06:11:11;8.90;99.90
14301;DHT22;7234;59.306;18.024;2023-10-31T06:13:40;9.00;99.90
14301;DHT22;7234;59.306;18.024;2023-10-31T06:16:07;9.00;99.90
14301;DHT22;7234;59.306;18.024;2023-10-31T06:18:35;9.00;99.90
14301;DHT22;7234;59.306;18.024;2023-10-31T06:21:02;9.00;99.90
14301;DHT22;7234;59.306;18.024;2023-10-31T06:23:38;9.00;99.90
14301;DHT22;7234;59.306;18.024;2023-10-31T06:26:05;9.00;99.90
14301;DHT22;7234;59.306;18.024;2023-10-31T06:28:32;9.00;99.90
14301;DHT22;7234;59.306;18.024;2023-10-31T06:31:02;9.00;99.90
14301;DHT22;7234;59.306;18.024;2023-10-31T06:33:30;9.00;99.90
14301;DHT22;7234;59.306;18.024;2023-10-31T06:35:57;9.00;99.90
14301;DHT22;7234;59.306;18.024;2023-10-31T06:38:25;9.00;99.90
14301;DHT22;7234;59.306;18.024;2023-10-31T06:40:53;9.10;99.90
14301;DHT22;7234;59.306;18.024;2023-10-31T06:43:23;9.10;99.90
14301;DHT22;7234;59.306;18.024;2023-10-31T06:45:51;9.00;99.90
14301;DHT22;7234;59.306;18.024;2023-10-31T06:48:18;9.00;99.90
14301;DHT22;7234;59.306;18.024;2023-10-31T06:50:45;9.00;99.90
14301;DHT22;7234;59.306;18.024;2023-10-31T06:53:12;9.00;99.90
14301;DHT22;7234;59.306;18.024;2023-10-31T06:55:40;9.00;99.90
14301;DHT22;7234;59.306;18.024;2023-10-31T06:58:08;9.00;99.90
14301;DHT22;7234;59.306;18.024;2023-10-31T07:00:36;9.10;99.90
14301;DHT22;7234;59.306;18.024;2023-10-31T07:03:05;9.00;99.90
14301;DHT22;7234;59.306;18.024;2023-10-31T07:05:35;9.00;99.90
14301;DHT22;7234;59.306;18.024;2023-10-31T07:08:02;8.90;99.90
14301;DHT22;7234;59.306;18.024;2023-10-31T07:10:30;8.90;99.90
14301;DHT22;7234;59.306;18.024;2023-10-31T07:12:58;8.90;99.90
14301;DHT22;7234;59.306;18.024;2023-10-31T07:15:27;8.90;99.90
14301;DHT22;7234;59.306;18.024;2023-10-31T07:17:54;9.10;99.90
14301;DHT22;7234;59.306;18.024;2023-10-31T07:20:21;9.00;99.90
14301;DHT22;7234;59.306;18.024;2023-10-31T07:22:48;9.00;99.90
14301;DHT22;7234;59.306;18.024;2023-10-31T07:25:16;9.00;99.90
14301;DHT22;7234;59.306;18.024;2023-10-31T07:27:43;9.00;99.90
14301;DHT22;7234;59.306;18.024;2023-10-31T07:30:11;9.00;99.90
14301;DHT22;7234;59.306;18.024;2023-10-31T07:32:39;9.00;99.90
14301;DHT22;7234;59.306;18.024;2023-10-31T07:35:07;9.00;99.90
14301;DHT22;7234;59.306;18.024;2023-10-31T07:37:34;8.90;99.90
14301;DHT22;7234;59.306;18.024;2023-10-31T07:40:02;8.90;99.90
14301;DHT22;7234;59.306;18.024;2023-10-31T07:42:31;8.90;99.90
14301;DHT22;7234;59.306;18.024;2023-10-31T07:44:58;8.90;99.90
14301;DHT22;7234;59.306;18.024;2023-10-31T07:47:25;8.90;99.90
14301;DHT22;7234;59.306;18.024;2023-10-31T07:49:55;8.80;99.90
14301;DHT22;7234;59.306;18.024;2023-10-31T07:52:22;8.90;99.90
14301;DHT22;7234;59.306;18.024;2023-10-31T07:54:49;8.90;99.90
14301;DHT22;7234;59.306;18.024;2023-10-31T07:57:16;8.80;99.90
14301;DHT22;7234;59.306;18.024;2023-10-31T07:59:43;8.80;99.90
14301;DHT22;7234;59.306;18.024;2023-10-31T08:02:10;8.80;99.90
14301;DHT22;7234;59.306;18.024;2023-10-31T08:04:38;8.90;99.90
14301;DHT22;7234;59.306;18.024;2023-10-31T08:07:07;8.90;99.90
14301;DHT22;7234;59.306;18.024;2023-10-31T08:09:36;8.90;99.90
14301;DHT22;7234;59.306;18.024;2023-10-31T08:12:03;8.90;99.90
14301;DHT22;7234;59.306;18.024;2023-10-31T08:14:30;8.90;99.90
14301;DHT22;7234;59.306;18.024;2023-10-31T08:17:01;8.90;99.90
14301;DHT22;7234;59.306;18.024;2023-10-31T08:19:29;8.80;99.90
14301;DHT22;7234;59.306;18.024;2023-10-31T08:21:56;8.80;99.90
14301;DHT22;7234;59.306;18.024;2023-10-31T08:24:24;8.80;99.90
14301;DHT22;7234;59.306;18.024;2023-10-31T08:26:52;8.80;99.90
14301;DHT22;7234;59.306;18.024;2023-10-31T08:29:19;8.80;99.90
14301;DHT22;7234;59.306;18.024;2023-10-31T08:31:47;8.80;99.90
14301;DHT22;7234;59.306;18.024;2023-10-31T08:34:15;8.80;99.90
14301;DHT22;7234;59.306;18.024;2023-10-31T08:36:42;8.80;99.90
14301;DHT22;7234;59.306;18.024;2023-10-31T08:39:09;8.80;99.90
14301;DHT22;7234;59.306;18.024;2023-10-31T08:41:49;8.80;99.90
14301;DHT22;7234;59.306;18.024;2023-10-31T08:44:16;8.80;99.90
14301;DHT22;7234;59.306;18.024;2023-10-31T08:46:43;8.80;99.90
14301;DHT22;7234;59.306;18.024;2023-10-31T08:49:10;8.80;99.90
14301;DHT22;7234;59.306;18.024;2023-10-31T08:51:39;8.80;99.90
14301;DHT22;7234;59.306;18.024;2023-10-31T08:54:06;8.80;99.90
14301;DHT22;7234;59.306;18.024;2023-10-31T08:56:34;8.90;99.90
14301;DHT22;7234;59.306;18.024;2023-10-31T08:59:03;8.80;99.90
14301;DHT22;7234;59.306;18.024;2023-10-31T09:01:30;8.80;99.90
14301;DHT22;7234;59.306;18.024;2023-10-31T09:03:59;8.80;99.90
14301;DHT22;7234;59.306;18.024;2023-10-31T09:06:26;8.80;99.90
14301;DHT22;7234;59.306;18.024;2023-10-31T09:08:53;8.80;99.90
14301;DHT22;7234;59.306;18.024;2023-10-31T09:11:20;8.80;99.90
14301;DHT22;7234;59.306;18.024;2023-10-31T09:13:48;8.90;99.90
14301;DHT22;7234;59.306;18.024;2023-10-31T09:16:17;8.90;99.90
14301;DHT22;7234;59.306;18.024;2023-10-31T09:18:48;8.90;99.90
14301;DHT22;7234;59.306;18.024;2023-10-31T09:21:15;8.90;99.90
14301;DHT22;7234;59.306;18.024;2023-10-31T09:23:43;8.90;99.90
14301;DHT22;7234;59.306;18.024;2023-10-31T09:26:11;8.90;99.90
14301;DHT22;7234;59.306;18.024;2023-10-31T09:28:38;8.90;99.90
14301;DHT22;7234;59.306;18.024;2023-10-31T09:31:16;8.90;99.90
14301;DHT22;7234;59.306;18.024;2023-10-31T09:33:44;8.90;99.90
14301;DHT22;7234;59.306;18.024;2023-10-31T09:36:25;8.90;99.90
14301;DHT22;7234;59.306;18.024;2023-10-31T09:38:52;8.90;99.90
14301;DHT22;7234;59.306;18.024;2023-10-31T09:41:20;8.90;99.90
14301;DHT22;7234;59.306;18.024;2023-10-31T09:43:47;8.90;99.90
14301;DHT22;7234;59.306;18.024;2023-10-31T09:46:17;8.90;99.90
14301;DHT22;7234;59.306;18.024;2023-10-31T09:48:45;8.90;99.90
14301;DHT22;7234;59.306;18.024;2023-10-31T09:51:13;8.90;99.90
14301;DHT22;7234;59.306;18.024;2023-10-31T09:53:41;8.90;99.90
14301;DHT22;7234;59.306;18.024;2023-10-31T09:56:09;8.80;99.90
14301;DHT22;7234;59.306;18.024;2023-10-31T09:58:37;8.90;99.90
14301;DHT22;7234;59.306;18.024;2023-10-31T10:01:07;8.80;99.90
14301;DHT22;7234;59.306;18.024;2023-10-31T10:03:40;8.80;99.90
14301;DHT22;7234;59.306;18.024;2023-10-31T10:06:10;8.80;99.90
14301;DHT22;7234;59.306;18.024;2023-10-31T10:08:37;8.70;99.90
14301;DHT22;7234;59.306;18.024;2023-10-31T10:11:05;8.70;99.90
14301;DHT22;7234;59.306;18.024;2023-10-31T10:13:32;8.70;99.90
14301;DHT22;7234;59.306;18.024;2023-10-31T10:16:00;8.70;99.90
14301;DHT22;7234;59.306;18.024;2023-10-31T10:18:27;8.70;99.90
14301;DHT22;7234;59.306;18.024;2023-10-31T10:20:58;8.70;99.90
14301;DHT22;7234;59.306;18.024;2023-10-31T10:23:26;8.70;99.90
14301;DHT22;7234;59.306;18.024;2023-10-31T10:25:55;8.70;99.90
14301;DHT22;7234;59.306;18.024;2023-10-31T10:28:27;8.60;99.90
14301;DHT22;7234;59.306;18.024;2023-10-31T10:30:55;8.60;99.90
14301;DHT22;7234;59.306;18.024;2023-10-31T10:33:22;8.60;99.90
14301;DHT22;7234;59.306;18.024;2023-10-31T10:35:49;8.50;99.90
14301;DHT22;7234;59.306;18.024;2023-10-31T10:38:19;8.50;99.90
14301;DHT22;7234;59.306;18.024;2023-10-31T10:40:47;8.50;99.90
14301;DHT22;7234;59.306;18.024;2023-10-31T10:43:21;8.50;99.90
14301;DHT22;7234;59.306;18.024;2023-10-31T10:45:52;8.40;99.90
14301;DHT22;7234;59.306;18.024;2023-10-31T10:48:22;8.40;99.90
14301;DHT22;7234;59.306;18.024;2023-10-31T10:50:55;8.50;99.90
14301;DHT22;7234;59.306;18.024;2023-10-31T10:53:29;8.50;99.90
14301;DHT22;7234;59.306;18.024;2023-10-31T10:56:00;8.40;99.90
14301;DHT22;7234;59.306;18.024;2023-10-31T10:58:40;8.40;99.90
14301;DHT22;7234;59.306;18.024;2023-10-31T11:01:09;8.40;99.90
14301;DHT22;7234;59.306;18.024;2023-10-31T11:03:39;8.40;99.90
14301;DHT22;7234;59.306;18.024;2023-10-31T11:06:07;8.40;99.90
14301;DHT22;7234;59.306;18.024;2023-10-31T11:08:37;8.40;99.90
14301;DHT22;7234;59.306;18.024;2023-10-31T11:11:05;8.40;99.90
14301;DHT22;7234;59.306;18.024;2023-10-31T11:13:33;8.40;99.90
14301;DHT22;7234;59.306;18.024;2023-10-31T11:16:06;8.40;99.90
14301;DHT22;7234;59.306;18.024;2023-10-31T11:18:35;8.40;99.90
14301;DHT22;7234;59.306;18.024;2023-10-31T11:21:04;8.40;99.90
14301;DHT22;7234;59.306;18.024;2023-10-31T11:23:31;8.40;99.90
14301;DHT22;7234;59.306;18.024;2023-10-31T11:26:01;8.40;99.90
14301;DHT22;7234;59.306;18.024;2023-10-31T11:28:28;8.40;99.90
14301;DHT22;7234;59.306;18.024;2023-10-31T11:30:59;8.50;99.90
14301;DHT22;7234;59.306;18.024;2023-10-31T11:33:28;8.50;99.90
14301;DHT22;7234;59.306;18.024;2023-10-31T11:36:04;8.50;99.90
14301;DHT22;7234;59.306;18.024;2023-10-31T11:38:35;8.50;99.90
14301;DHT22;7234;59.306;18.024;2023-10-31T11:41:06;8.50;99.90
14301;DHT22;7234;59.306;18.024;2023-10-31T11:43:52;8.50;99.90
14301;DHT22;7234;59.306;18.024;2023-10-31T11:46:21;8.60;99.90
14301;DHT22;7234;59.306;18.024;2023-10-31T11:48:51;8.60;99.90
14301;DHT22;7234;59.306;18.024;2023-10-31T11:51:19;8.60;99.90
14301;DHT22;7234;59.306;18.024;2023-10-31T11:53:50;8.50;99.90
14301;DHT22;7234;59.306;18.024;2023-10-31T11:56:20;8.50;99.90
14301;DHT22;7234;59.306;18.024;2023-10-31T11:58:55;8.40;99.90
14301;DHT22;7234;59.306;18.024;2023-10-31T12:01:22;8.40;99.90
14301;DHT22;7234;59.306;18.024;2023-10-31T12:03:50;8.40;99.90
14301;DHT22;7234;59.306;18.024;2023-10-31T12:06:17;8.40;99.90
14301;DHT22;7234;59.306;18.024;2023-10-31T12:08:46;8.40;99.90
14301;DHT22;7234;59.306;18.024;2023-10-31T12:11:18;8.40;99.90
14301;DHT22;7234;59.306;18.024;2023-10-31T12:13:58;8.40;99.90
14301;DHT22;7234;59.306;18.024;2023-10-31T12:16:29;8.30;99.90
14301;DHT22;7234;59.306;18.024;2023-10-31T12:18:57;8.30;99.90
14301;DHT22;7234;59.306;18.024;2023-10-31T12:21:36;8.30;99.90
14301;DHT22;7234;59.306;18.024;2023-10-31T12:24:04;8.30;99.90
14301;DHT22;7234;59.306;18.024;2023-10-31T12:26:32;8.30;99.90
14301;DHT22;7234;59.306;18.024;2023-10-31T12:29:13;8.20;99.90
14301;DHT22;7234;59.306;18.024;2023-10-31T12:31:45;8.20;99.90
14301;DHT22;7234;59.306;18.024;2023-10-31T12:34:15;8.20;99.90
14301;DHT22;7234;59.306;18.024;2023-10-31T12:36:48;8.20;99.90
14301;DHT22;7234;59.306;18.024;2023-10-31T12:39:17;8.10;99.90
14301;DHT22;7234;59.306;18.024;2023-10-31T12:41:45;8.10;99.90
14301;DHT22;7234;59.306;18.024;2023-10-31T12:44:17;8.00;99.90
14301;DHT22;7234;59.306;18.024;2023-10-31T12:46:47;8.00;99.90
14301;DHT22;7234;59.306;18.024;2023-10-31T12:49:17;8.10;99.90
14301;DHT22;7234;59.306;18.024;2023-10-31T12:52:02;8.00;99.90
14301;DHT22;7234;59.306;18.024;2023-10-31T12:54:32;8.00;99.90
14301;DHT22;7234;59.306;18.024;2023-10-31T12:57:01;7.90;99.90
14301;DHT22;7234;59.306;18.024;2023-10-31T12:59:31;7.90;99.90
14301;DHT22;7234;59.306;18.024;2023-10-31T13:01:59;7.90;99.90
14301;DHT22;7234;59.306;18.024;2023-10-31T13:04:30;8.00;99.90
14301;DHT22;7234;59.306;18.024;2023-10-31T13:07:00;8.00;99.90
14301;DHT22;7234;59.306;18.024;2023-10-31T13:09:31;7.90;99.90
14301;DHT22;7234;59.306;18.024;2023-10-31T13:12:00;7.90;99.90
14301;DHT22;7234;59.306;18.024;2023-10-31T13:14:28;7.90;99.90
14301;DHT22;7234;59.306;18.024;2023-10-31T13:16:59;7.90;99.90
14301;DHT22;7234;59.306;18.024;2023-10-31T13:19:29;7.90;99.90
14301;DHT22;7234;59.306;18.024;2023-10-31T13:21:57;7.90;99.90
14301;DHT22;7234;59.306;18.024;2023-10-31T13:24:24;7.90;99.90
14301;DHT22;7234;59.306;18.024;2023-10-31T13:26:53;7.90;99.90
14301;DHT22;7234;59.306;18.024;2023-10-31T13:29:21;7.80;99.90
14301;DHT22;7234;59.306;18.024;2023-10-31T13:31:51;7.80;99.90
14301;DHT22;7234;59.306;18.024;2023-10-31T13:34:23;7.80;99.90
14301;DHT22;7234;59.306;18.024;2023-10-31T13:36:50;7.80;99.90
14301;DHT22;7234;59.306;18.024;2023-10-31T13:39:18;7.80;99.90
14301;DHT22;7234;59.306;18.024;2023-10-31T13:41:47;7.80;99.90
14301;DHT22;7234;59.306;18.024;2023-10-31T13:44:14;7.70;99.90
14301;DHT22;7234;59.306;18.024;2023-10-31T13:46:43;7.70;99.90
14301;DHT22;7234;59.306;18.024;2023-10-31T13:49:11;7.70;99.90
14301;DHT22;7234;59.306;18.024;2023-10-31T13:51:41;7.70;99.90
14301;DHT22;7234;59.306;18.024;2023-10-31T13:54:09;7.70;99.90
14301;DHT22;7234;59.306;18.024;2023-10-31T13:56:39;7.70;99.90
14301;DHT22;7234;59.306;18.024;2023-10-31T13:59:06;7.70;99.90
14301;DHT22;7234;59.306;18.024;2023-10-31T14:01:33;7.70;99.90
14301;DHT22;7234;59.306;18.024;2023-10-31T14:04:00;7.70;99.90
14301;DHT22;7234;59.306;18.024;2023-10-31T14:06:28;7.60;99.90
14301;DHT22;7234;59.306;18.024;2023-10-31T14:09:00;7.60;99.90
14301;DHT22;7234;59.306;18.024;2023-10-31T14:11:31;7.60;99.90
14301;DHT22;7234;59.306;18.024;2023-10-31T14:13:59;7.60;99.90
14301;DHT22;7234;59.306;18.024;2023-10-31T14:16:31;7.60;99.90
14301;DHT22;7234;59.306;18.024;2023-10-31T14:19:03;7.50;99.90
14301;DHT22;7234;59.306;18.024;2023-10-31T14:21:32;7.60;99.90
14301;DHT22;7234;59.306;18.024;2023-10-31T14:24:02;7.60;99.90
14301;DHT22;7234;59.306;18.024;2023-10-31T14:26:31;7.60;99.90
14301;DHT22;7234;59.306;18.024;2023-10-31T14:28:58;7.60;99.90
14301;DHT22;7234;59.306;18.024;2023-10-31T14:31:26;7.60;99.90
14301;DHT22;7234;59.306;18.024;2023-10-31T14:34:07;7.60;99.90
14301;DHT22;7234;59.306;18.024;2023-10-31T14:36:35;7.60;99.90
14301;DHT22;7234;59.306;18.024;2023-10-31T14:39:04;7.60;99.90
14301;DHT22;7234;59.306;18.024;2023-10-31T14:41:32;7.50;99.90
14301;DHT22;7234;59.306;18.024;2023-10-31T14:43:59;7.40;99.90
14301;DHT22;7234;59.306;18.024;2023-10-31T14:46:28;7.40;99.90
14301;DHT22;7234;59.306;18.024;2023-10-31T14:49:09;7.40;99.90
14301;DHT22;7234;59.306;18.024;2023-10-31T14:51:39;7.40;99.90
14301;DHT22;7234;59.306;18.024;2023-10-31T14:54:11;7.40;99.90
14301;DHT22;7234;59.306;18.024;2023-10-31T14:56:39;7.30;99.90
14301;DHT22;7234;59.306;18.024;2023-10-31T14:59:07;7.30;99.90
14301;DHT22;7234;59.306;18.024;2023-10-31T15:01:35;7.20;99.90
14301;DHT22;7234;59.306;18.024;2023-10-31T15:04:06;7.20;99.90
14301;DHT22;7234;59.306;18.024;2023-10-31T15:06:34;7.10;99.90
14301;DHT22;7234;59.306;18.024;2023-10-31T15:09:06;7.20;99.90
14301;DHT22;7234;59.306;18.024;2023-10-31T15:11:41;7.10;99.90
14301;DHT22;7234;59.306;18.024;2023-10-31T15:14:09;7.10;99.90
14301;DHT22;7234;59.306;18.024;2023-10-31T15:16:36;7.00;99.90
14301;DHT22;7234;59.306;18.024;2023-10-31T15:19:03;7.10;99.90
14301;DHT22;7234;59.306;18.024;2023-10-31T15:21:31;6.90;99.90
14301;DHT22;7234;59.306;18.024;2023-10-31T15:23:59;7.00;99.90
14301;DHT22;7234;59.306;18.024;2023-10-31T15:26:33;7.00;99.90
14301;DHT22;7234;59.306;18.024;2023-10-31T15:29:05;7.00;99.90
14301;DHT22;7234;59.306;18.024;2023-10-31T15:31:32;7.00;99.90
14301;DHT22;7234;59.306;18.024;2023-10-31T15:34:02;7.00;99.90
14301;DHT22;7234;59.306;18.024;2023-10-31T15:36:30;6.90;99.90
14301;DHT22;7234;59.306;18.024;2023-10-31T15:38:57;6.90;99.90
14301;DHT22;7234;59.306;18.024;2023-10-31T15:41:26;6.90;99.90
14301;DHT22;7234;59.306;18.024;2023-10-31T15:43:54;6.80;99.90
14301;DHT22;7234;59.306;18.024;2023-10-31T15:46:24;6.80;99.90
14301;DHT22;7234;59.306;18.024;2023-10-31T15:48:51;6.80;99.90
14301;DHT22;7234;59.306;18.024;2023-10-31T15:51:18;6.80;99.90
14301;DHT22;7234;59.306;18.024;2023-10-31T15:53:45;6.80;99.90